Nearby METAR Reports

 

KDWH - Houston/Dw Hooks, Texas, USA
Distance from station: WNW 3mi, 6km
Updated: 10/19/2019 12:53am
Clear
Clear
 Wind from ESE
Wind: ESE 3 mph , 6 km/h
Temperature: 63°F , 17°C
Dew Point: 57°F , 14°C
Humidity: 83%
Barometer: 29.76 inHg , 1007.8 hPa
Clouds: Clear
Visibility: 10 miles , 16 km
2019/10/19 05:53 KDWH 190553Z AUTO 11003KT 10SM CLR 17/14 A2976 RMK AO2 PRESFR SLP075 T01670144 10222 20156 402670106 58007
KIAH - Houston/Intnl, Texas, USA
Distance from station: ESE 9mi, 14km
Updated: 10/19/2019 12:53am
Clear
Clear
 Wind from calm
Wind: Calm
Temperature: 64°F , 18°C
Dew Point: 61°F , 16°C
Humidity: 88%
Barometer: 29.77 inHg , 1008.1 hPa
Clouds: Clear
Visibility: 10 miles , 16 km
2019/10/19 05:53 KIAH 190553Z 00000KT 10SM CLR 18/16 A2977 RMK AO2 SLP080 T01780161 10222 20178 402720122 58001
 
KCXO - Conroe, Texas, USA
Distance from station: NNE 21mi, 34km
Updated: 10/19/2019 1:47am
Mist, Few clouds
Mist, Few clouds
 Wind from calm
Wind: Calm
Temperature: 57°F , 14°C
Dew Point: 57°F , 14°C
Humidity: 100%
Barometer: 29.77 inHg , 1008.1 hPa
Summary: Mist
Clouds: Few Clouds
Visibility: 1 3/4 miles , 2.8 km
Cloud details: Few Clouds 500 ft
2019/10/19 06:47 KCXO 190647Z AUTO 00000KT 1 3/4SM BR FEW005 14/14 A2977 RMK AO2 VIS 3/4V5
KMCJ - Houston/Univ, Texas, USA
Distance from station: SSE 24mi, 39km
Updated: 10/19/2019 1:35am
Clear
Clear
 Wind from calm
Wind: Calm
Temperature: 70°F , 21°C
Dew Point: 64°F , 18°C
Humidity: 83%
Barometer: 29.75 inHg , 1007.5 hPa
Clouds: Clear
Visibility: 10 miles , 16 km
2019/10/19 06:35 KMCJ 190635Z AUTO 00000KT 10SM CLR 21/18 A2975 RMK A01
 
KTME - Houston Exec, Texas, USA
Distance from station: SW 30mi, 48km
Updated: 10/19/2019 1:35am
Mist, Clear
Mist, Clear
 Wind from calm
Wind: Calm
Temperature: 66°F , 19°C
Dew Point: 64°F , 18°C
Humidity: 94%
Barometer: 29.77 inHg , 1008.1 hPa
Summary: Mist
Clouds: Clear
Visibility: 5 miles , 8 km
2019/10/19 06:35 KTME 190635Z AUTO 00000KT 5SM BR CLR 19/18 A2977 RMK AO2
KHOU - Houston/Hobby, Texas, USA
Distance from station: SSE 32mi, 51km
Updated: 10/19/2019 12:53am
Clear
Clear
 Wind from calm
Wind: Calm
Temperature: 66°F , 19°C
Dew Point: 63°F , 17°C
Humidity: 88%
Barometer: 29.76 inHg , 1007.8 hPa
Clouds: Clear
Visibility: 10 miles , 16 km
2019/10/19 05:53 KHOU 190553Z 00000KT 10SM CLR 19/17 A2976 RMK AO2 SLP083 T01940172 10239 20194 402780144 58002
 
KSGR - Houston/Sugar La, Texas, USA
Distance from station: SSW 32mi, 51km
Updated: 10/19/2019 12:53am
Clear
Clear
 Wind from calm
Wind: Calm
Temperature: 66°F , 19°C
Dew Point: 64°F , 18°C
Humidity: 94%
Barometer: 29.76 inHg , 1007.8 hPa
Clouds: Clear
Visibility: 10 miles , 16 km
2019/10/19 05:53 KSGR 190553Z AUTO 00000KT 10SM CLR 19/18 A2976 RMK AO2 SLP079 T01940183 10239 20183 402830122 58003
K6R3 - Cleveland Muni, Texas, USA
Distance from station: NE 36mi, 58km
Updated: 10/19/2019 1:35am
Mist, Clear
Mist, Clear
 Wind from calm
Wind: Calm
Temperature: 61°F , 16°C
Dew Point: 61°F , 16°C
Humidity: 100%
Barometer: 29.77 inHg , 1008.1 hPa
Summary: Mist
Clouds: Clear
Visibility: 3 miles , 5 km
2019/10/19 06:35 K6R3 190635Z AUTO 00000KT 3SM BR CLR 16/16 A2977 RMK AO2 T01640164
 
KAXH - Houston/Southwst, Texas, USA
Distance from station: S 37mi, 60km
Updated: 10/19/2019 1:35am
Clear
Clear
 Wind from calm
Wind: Calm
Temperature: 63°F , 17°C
Dew Point: 63°F , 17°C
Humidity: 100%
Barometer: 29.76 inHg , 1007.8 hPa
Clouds: Clear
Visibility: 7 miles , 11 km
2019/10/19 06:35 KAXH 190635Z AUTO 00000KT 7SM CLR 17/17 A2976 RMK AO2 T01660166
KEFD - Houston/Ellingto, Texas, USA
Distance from station: SSE 37mi, 60km
Updated: 10/19/2019 12:50am
Clear
Clear
 Wind from calm
Wind: Calm
Temperature: 70°F , 21°C
Dew Point: 61°F , 16°C
Humidity: 73%
Barometer: 29.76 inHg , 1007.8 hPa
Clouds: Clear
Visibility: 10 miles , 16 km
2019/10/19 05:50 KEFD 190550Z 00000KT 10SM SKC 21/16 A2976
 
KLVJ - Houston, Texas, USA
Distance from station: SSE 40mi, 64km
Updated: 10/19/2019 12:53am
Clear
Clear
 Wind from calm
Wind: Calm
Temperature: 66°F , 19°C
Dew Point: 63°F , 17°C
Humidity: 88%
Barometer: 29.78 inHg , 1008.5 hPa
Clouds: Clear
Visibility: 10 miles , 16 km
2019/10/19 05:53 KLVJ 190553Z AUTO 00000KT 10SM CLR 19/17 A2978 RMK AO2 SLP083 T01940167 10244 20189 402830150 58003
KUTS - Huntsville, Texas, USA
Distance from station: N 48mi, 78km
Updated: 10/19/2019 12:53am
Clear
Clear
 Wind from varies
Wind: varies 3 mph , 6 km/h
Temperature: 66°F , 19°C
Dew Point: 63°F , 17°C
Humidity: 88%
Barometer: 29.76 inHg , 1007.8 hPa
Clouds: Clear
Visibility: 10 miles , 16 km
2019/10/19 05:53 KUTS 190553Z AUTO VRB03KT 10SM CLR 19/17 A2976 RMK AO2 SLP073 T01890167 10228 20172 402670089 58010